Αρχική σελίδα
METAR-TAF:

METAR-TAF

Αεροδρόμια :

Redding Municipal Airport

Redding, Καλιφόρνια, Ηνωμένες Πολιτείες Αμερικής

γεωγραφικό πλάτος: 40-30-54N, γεωγραφικό μήκος: 122-17-48W, υψόμετρο: 153 μ

Παρών καιρός

Η αναφορά έγινε 16 λεπτά πριν, στις 23:53 UTC
Άνεμος 8 kt από Α/NA
Θερμοκρασία 39°C
Υγρασία 23%
Πίεση 1013 hPa
Ορατότητα: 16.1 χλμ
Καθαρός ουρανός

METAR: KRDD 222353Z 12008KT 10SM CLR 39/14 A2992 RMK AO2 SLP122 T03890144 10394 20317 56021

Χρόνος: 17:09 (00:09 UTC)

Πρόγνωση Καιρού

Η αναφορά έγινε 49 λεπτά πριν, στις 23:20 UTC
Η πρόγνωση ισχύει από τις 23 στις 00 UTC έως τις 23 στις 24 UTC
Άνεμος 9 kt από Ν
Ορατότητα: 10 χλμ
Καθαρός ουρανός
Από 23 στις 0400 UTC
Άνεμος 3 kt από μεταβλητές κατευθύνσεις
Ορατότητα: 10 χλμ
Διάσπαρτα νέφη σε ύψος 25000 πόδια

TAF: KRDD 222320Z 2300/2324 17009KT P6SM SKC FM230400 VRB03KT P6SM SCT250

Μετεωρολογικές αναφορές και προγνώσεις για περισσότερα από 4000 αεροδρόμια (δελτία METAR και TAF).

Οι διαθέσιμοι σταθμοί απεικονίζονται στο χάρτη με κίτρινες και κόκκινες κουκκίδες.

Μετακινήστε το ποντίκι πάνω από τις κουκκίδες για να δείτε το όνομα του σταθμού.

Στη συνέχεια, κάντε κλικ για να δείτε τις μετεωρολογικές αναφορές και τις προγνώσεις καιρού.

Για να αλλάξετε το χάρτη: κάντε κλικ στα πράσινα κουμπιά με τον μαύρο σταυρό για να ζουμάρετε, στο πράσινο κουμπί με την παύλα για να αφαιρέσετε το ζουμ ή στα πράσινα βέλη για να αντιπαραβάλλετε χάρτες.


METAR-TAF: